createdAt,value
2019-05-23T00:01:12.657Z,102054.14
2019-05-23T00:04:28.282Z,102045.02
2019-05-23T00:07:37.116Z,102049.70
2019-05-23T00:10:46.403Z,102043.45
2019-05-23T00:14:31.154Z,102045.14
2019-05-23T00:17:56.563Z,102045.92
2019-05-23T00:21:05.828Z,102046.42
2019-05-23T00:24:25.490Z,102045.92
2019-05-23T00:27:35.696Z,102045.58
2019-05-23T00:30:54.590Z,102045.38
2019-05-23T00:34:04.349Z,102044.19
2019-05-23T00:37:14.091Z,102038.43
2019-05-23T00:40:23.187Z,102038.78
2019-05-23T00:43:32.461Z,102038.08
2019-05-23T00:46:52.822Z,102032.88
2019-05-23T00:50:03.273Z,102035.53
2019-05-23T00:53:13.572Z,102040.44
2019-05-23T00:56:23.658Z,102037.73
2019-05-23T00:59:33.535Z,102037.39
2019-05-23T01:02:56.956Z,102038.05
2019-05-23T01:06:06.775Z,102024.84
2019-05-23T01:09:17.053Z,102047.14
2019-05-23T01:12:37.809Z,102034.34
2019-05-23T01:15:47.889Z,102041.75
2019-05-23T01:18:56.487Z,102033.65
2019-05-23T01:22:08.378Z,102038.04
2019-05-23T01:25:18.275Z,102035.94
2019-05-23T01:28:37.494Z,102039.00
2019-05-23T01:31:47.889Z,102036.27
2019-05-23T01:34:57.978Z,102041.15
2019-05-23T01:38:08.197Z,102037.75
2019-05-23T01:41:17.208Z,102031.47
2019-05-23T01:44:26.509Z,102033.62
2019-05-23T01:47:47.887Z,102027.22
2019-05-23T01:50:57.776Z,102028.33
2019-05-23T01:54:07.360Z,102032.88
2019-05-23T01:57:27.001Z,102034.27
2019-05-23T02:00:35.612Z,102033.56
2019-05-23T02:03:44.820Z,102027.98
2019-05-23T02:06:55.576Z,102035.23
2019-05-23T02:10:05.174Z,102026.47
2019-05-23T02:13:13.780Z,102026.62
2019-05-23T02:16:23.594Z,102023.72
2019-05-23T02:19:32.152Z,102017.97
2019-05-23T02:22:53.239Z,102015.17
2019-05-23T02:26:01.781Z,102017.77
2019-05-23T02:29:12.115Z,102010.87
2019-05-23T02:32:20.750Z,102012.05
2019-05-23T02:35:29.982Z,102004.06
2019-05-23T02:39:09.994Z,102001.77
2019-05-23T02:42:28.655Z,101998.23
2019-05-23T02:45:45.665Z,102004.41
2019-05-23T02:48:59.103Z,102003.59
2019-05-23T02:52:31.754Z,101994.86
2019-05-23T02:55:42.508Z,102002.14
2019-05-23T02:59:13.761Z,102003.52
2019-05-23T03:02:54.905Z,102006.13
2019-05-23T03:06:06.776Z,102003.94
2019-05-23T03:09:19.812Z,102008.62
2019-05-23T03:12:31.670Z,102004.38
2019-05-23T03:15:42.369Z,101996.33
2019-05-23T03:18:58.150Z,102003.17
2019-05-23T03:22:45.114Z,101994.94
2019-05-23T03:26:47.339Z,101998.03
2019-05-23T03:30:14.357Z,101999.05
2019-05-23T03:33:23.612Z,102004.09
2019-05-23T03:36:43.621Z,101987.34
2019-05-23T03:40:03.986Z,101994.34
2019-05-23T03:43:13.654Z,102004.02
2019-05-23T03:46:23.844Z,102003.42
2019-05-23T03:49:34.078Z,101995.71
2019-05-23T03:52:44.174Z,101999.48
2019-05-23T03:55:54.730Z,102003.44
2019-05-23T03:59:04.736Z,102002.99
2019-05-23T04:02:15.898Z,101998.52
2019-05-23T04:05:25.186Z,101990.48
2019-05-23T04:08:34.621Z,101999.03
2019-05-23T04:11:43.725Z,101991.34
2019-05-23T04:14:52.862Z,101996.58
2019-05-23T04:18:01.582Z,102001.88
2019-05-23T04:21:10.517Z,101996.22
2019-05-23T04:24:30.475Z,102002.52
2019-05-23T04:27:41.191Z,102004.86
2019-05-23T04:30:48.729Z,102010.61
2019-05-23T04:33:57.615Z,102008.84
2019-05-23T04:37:06.465Z,102005.30
2019-05-23T04:40:15.822Z,102011.23
2019-05-23T04:43:24.724Z,102011.27
2019-05-23T04:46:34.994Z,102016.52
2019-05-23T04:49:44.412Z,102012.16
2019-05-23T04:52:53.144Z,102011.38
2019-05-23T04:56:12.651Z,102011.22
2019-05-23T04:59:21.281Z,102019.64
2019-05-23T05:02:31.148Z,102018.35
2019-05-23T05:05:39.985Z,102018.89
2019-05-23T05:08:48.993Z,102019.59
2019-05-23T05:11:58.658Z,102024.21
2019-05-23T05:15:19.937Z,102029.31
2019-05-23T05:18:29.153Z,102032.52
2019-05-23T05:21:38.504Z,102036.44
2019-05-23T05:24:47.117Z,102036.23
2019-05-23T05:27:55.819Z,102043.50
2019-05-23T05:31:04.620Z,102043.22
2019-05-23T05:34:13.154Z,102047.50
2019-05-23T05:37:22.906Z,102049.09
2019-05-23T05:40:31.823Z,102042.84
2019-05-23T05:43:39.439Z,102046.14
2019-05-23T05:46:48.349Z,102056.00
2019-05-23T05:49:56.945Z,102055.78
2019-05-23T05:53:05.782Z,102048.25
2019-05-23T05:56:14.495Z,102051.28
2019-05-23T05:59:23.284Z,102050.66
2019-05-23T06:02:32.136Z,102054.30
2019-05-23T06:05:52.635Z,102055.38
2019-05-23T06:09:02.685Z,102054.58
2019-05-23T06:12:13.011Z,102055.20
2019-05-23T06:15:23.253Z,102057.45
2019-05-23T06:18:32.392Z,102057.32
2019-05-23T06:21:41.944Z,102061.56
2019-05-23T06:25:01.095Z,102059.04
2019-05-23T06:28:22.458Z,102059.19
2019-05-23T06:31:43.411Z,102053.21
2019-05-23T06:35:02.360Z,102056.55
2019-05-23T06:38:11.150Z,102059.94
2019-05-23T06:41:20.387Z,102061.41
2019-05-23T06:44:40.026Z,102056.23
2019-05-23T06:47:48.974Z,102066.05
2019-05-23T06:50:57.712Z,102052.66
2019-05-23T06:54:07.053Z,102059.38
2019-05-23T06:57:16.257Z,102054.66
2019-05-23T07:00:27.778Z,102058.39
2019-05-23T07:03:42.182Z,102058.91
2019-05-23T07:06:47.217Z,102060.17
2019-05-23T07:09:56.347Z,102063.04
2019-05-23T07:13:03.744Z,102058.79
2019-05-23T07:16:22.993Z,102060.55
2019-05-23T07:19:42.311Z,102058.86
2019-05-23T07:22:52.036Z,102061.97
2019-05-23T07:26:00.807Z,102063.86
2019-05-23T07:29:10.879Z,102058.79
2019-05-23T07:32:19.596Z,102061.91
2019-05-23T07:35:28.368Z,102055.80
2019-05-23T07:38:37.091Z,102054.83
2019-05-23T07:41:45.817Z,102063.72
2019-05-23T07:45:07.383Z,102062.58
2019-05-23T07:48:16.006Z,102067.34
2019-05-23T07:51:24.714Z,102063.13
2019-05-23T07:54:39.311Z,102060.94
2019-05-23T07:57:48.094Z,102065.75
2019-05-23T08:01:09.632Z,102059.65
2019-05-23T08:04:21.771Z,102060.81
2019-05-23T08:07:32.726Z,102051.98
2019-05-23T08:10:41.489Z,102054.42
2019-05-23T08:13:52.192Z,102058.72
2019-05-23T08:17:01.087Z,102054.30
2019-05-23T08:20:10.940Z,102055.59
2019-05-23T08:23:19.941Z,102057.47
2019-05-23T08:26:30.904Z,102056.83
2019-05-23T08:29:50.260Z,102053.58
2019-05-23T08:32:58.901Z,102060.53
2019-05-23T08:36:07.778Z,102053.38
2019-05-23T08:39:18.369Z,102049.59
2019-05-23T08:42:27.573Z,102048.66
2019-05-23T08:45:47.129Z,102048.27
2019-05-23T08:49:08.595Z,102045.44
2019-05-23T08:52:27.351Z,102050.78
2019-05-23T08:55:37.250Z,102048.04
2019-05-23T08:58:46.405Z,102043.83
2019-05-23T09:01:55.268Z,102032.39
2019-05-23T09:05:06.576Z,102041.02
2019-05-23T09:08:17.322Z,102044.67
2019-05-23T09:11:27.081Z,102042.06
2019-05-23T09:14:47.917Z,102036.77
2019-05-23T09:17:56.928Z,102041.11
2019-05-23T09:21:16.768Z,102038.36
2019-05-23T09:24:25.850Z,102036.36
2019-05-23T09:27:46.491Z,102032.27
2019-05-23T09:30:56.284Z,102029.31
2019-05-23T09:34:06.227Z,102020.14
2019-05-23T09:37:16.828Z,102028.84
2019-05-23T09:40:25.875Z,102027.48
2019-05-23T09:43:34.722Z,102029.02
2019-05-23T09:46:43.536Z,102027.20
2019-05-23T09:49:53.795Z,102030.56
2019-05-23T09:53:04.130Z,102025.37
2019-05-23T09:56:12.952Z,102022.63
2019-05-23T09:59:21.661Z,102023.58
2019-05-23T10:02:30.317Z,102019.04
2019-05-23T10:05:43.639Z,102008.16
2019-05-23T10:08:49.588Z,102010.88
2019-05-23T10:11:58.436Z,102016.59
2019-05-23T10:15:07.667Z,102015.17
2019-05-23T10:18:19.325Z,102013.42
2019-05-23T10:21:28.060Z,102014.67
2019-05-23T10:24:38.917Z,102010.66
2019-05-23T10:27:47.433Z,102010.47
2019-05-23T10:30:56.081Z,102006.86
2019-05-23T10:34:04.992Z,102009.63
2019-05-23T10:37:16.522Z,102006.61
2019-05-23T10:40:35.709Z,101988.47
2019-05-23T10:43:44.434Z,102002.95
2019-05-23T10:46:53.042Z,101994.23
2019-05-23T10:50:07.282Z,101992.23
2019-05-23T10:53:15.530Z,101987.23
2019-05-23T10:56:24.324Z,101993.35
2019-05-23T10:59:33.430Z,101979.02
2019-05-23T11:02:52.641Z,101973.70
2019-05-23T11:06:16.346Z,101974.31
2019-05-23T11:09:36.760Z,101978.43
2019-05-23T11:12:43.506Z,101976.74
2019-05-23T11:16:03.173Z,101980.19
2019-05-23T11:19:11.906Z,101977.13
2019-05-23T11:22:30.782Z,101969.42
2019-05-23T11:25:41.222Z,101978.89
2019-05-23T11:28:49.903Z,101973.96
2019-05-23T11:31:58.693Z,101972.91
2019-05-23T11:35:07.619Z,101958.64
2019-05-23T11:38:16.876Z,101950.41
2019-05-23T11:41:25.689Z,101955.03
2019-05-23T11:44:34.401Z,101956.97
2019-05-23T11:47:43.242Z,101946.16
2019-05-23T11:50:51.867Z,101943.31
2019-05-23T11:54:11.465Z,101952.66
2019-05-23T11:57:20.157Z,101955.37
2019-05-23T12:01:20.655Z,101954.64
2019-05-23T12:04:37.547Z,101942.68
2019-05-23T12:07:46.428Z,101946.64
2019-05-23T12:10:55.045Z,101939.33
2019-05-23T12:14:03.759Z,101937.40
2019-05-23T12:17:13.220Z,101933.20
2019-05-23T12:20:22.154Z,101929.52
2019-05-23T12:23:30.682Z,101923.24
2019-05-23T12:26:39.528Z,101918.98
2019-05-23T12:29:48.033Z,101925.42
2019-05-23T12:32:56.676Z,101921.34
2019-05-23T12:36:06.201Z,101912.17
2019-05-23T12:39:25.705Z,101910.59
2019-05-23T12:42:34.537Z,101910.59
2019-05-23T12:45:43.450Z,101904.65
2019-05-23T12:49:06.846Z,101904.58
2019-05-23T12:52:35.821Z,101890.73
2019-05-23T12:55:44.642Z,101891.70
2019-05-23T12:58:54.095Z,101890.60
2019-05-23T13:02:04.703Z,101890.18
2019-05-23T13:05:13.589Z,101883.41
2019-05-23T13:08:22.536Z,101879.12
2019-05-23T13:11:31.367Z,101881.84
2019-05-23T13:14:40.277Z,101865.92
2019-05-23T13:17:48.935Z,101879.95
2019-05-23T13:20:59.546Z,101872.06
2019-05-23T13:24:08.256Z,101869.73
2019-05-23T13:27:17.234Z,101875.64
2019-05-23T13:30:26.460Z,101875.06
2019-05-23T13:33:45.756Z,101871.70
2019-05-23T13:36:54.481Z,101869.88
2019-05-23T13:40:58.281Z,101862.84
2019-05-23T13:44:08.479Z,101864.66
2019-05-23T13:47:17.080Z,101865.28
2019-05-23T13:50:26.030Z,101858.02
2019-05-23T13:53:34.658Z,101853.29
2019-05-23T13:56:47.611Z,101852.98
2019-05-23T13:59:53.970Z,101853.28
2019-05-23T14:03:02.739Z,101845.62
2019-05-23T14:06:11.837Z,101843.67
2019-05-23T14:09:23.600Z,101849.18
2019-05-23T14:12:33.921Z,101847.09
2019-05-23T14:15:44.838Z,101838.88
2019-05-23T14:18:53.775Z,101837.08
2019-05-23T14:22:03.412Z,101830.85
2019-05-23T14:25:13.066Z,101822.65
2019-05-23T14:28:34.139Z,101824.23
2019-05-23T14:32:01.381Z,101820.91
2019-05-23T14:35:35.042Z,101824.96
2019-05-23T14:38:43.787Z,101823.98
2019-05-23T14:41:58.784Z,101819.97
2019-05-23T14:45:36.428Z,101823.39
2019-05-23T14:49:04.083Z,101819.90
2019-05-23T14:52:19.536Z,101807.16
2019-05-23T14:55:27.937Z,101807.61
2019-05-23T14:58:37.057Z,101797.33
2019-05-23T15:01:46.935Z,101803.76
2019-05-23T15:04:55.790Z,101803.76
2019-05-23T15:08:04.432Z,101799.98
2019-05-23T15:11:13.067Z,101792.67
2019-05-23T15:14:32.122Z,101796.69
2019-05-23T15:17:40.846Z,101792.20
2019-05-23T15:20:49.516Z,101792.30
2019-05-23T15:23:58.236Z,101796.73
2019-05-23T15:27:06.946Z,101779.96
2019-05-23T15:30:15.456Z,101786.06
2019-05-23T15:33:23.970Z,101783.13
2019-05-23T15:36:32.587Z,101782.63
2019-05-23T15:39:51.450Z,101772.64
2019-05-23T15:43:00.102Z,101769.75
2019-05-23T15:46:08.660Z,101771.98
2019-05-23T15:49:17.503Z,101761.94
2019-05-23T15:52:34.743Z,101758.63
2019-05-23T15:55:57.912Z,101766.25
2019-05-23T15:59:31.846Z,101757.01
2019-05-23T16:02:47.312Z,101755.75
2019-05-23T16:05:56.748Z,101755.33
2019-05-23T16:09:29.255Z,101747.76
2019-05-23T16:12:42.578Z,101744.28
2019-05-23T16:15:51.421Z,101733.91
2019-05-23T16:19:00.065Z,101729.44
2019-05-23T16:22:19.212Z,101729.31
2019-05-23T16:25:27.710Z,101731.41
2019-05-23T16:28:36.642Z,101725.94
2019-05-23T16:31:45.207Z,101725.61
2019-05-23T16:34:54.017Z,101721.22
2019-05-23T16:38:02.681Z,101725.94
2019-05-23T16:41:11.900Z,101719.06
2019-05-23T16:44:31.138Z,101713.38
2019-05-23T16:47:39.876Z,101711.67
2019-05-23T16:50:48.721Z,101716.94
2019-05-23T16:53:58.505Z,101720.16
2019-05-23T16:57:19.802Z,101720.94
2019-05-23T17:00:53.205Z,101710.09
2019-05-23T17:04:14.683Z,101708.33
2019-05-23T17:07:41.119Z,101712.69
2019-05-23T17:11:00.800Z,101713.06
2019-05-23T17:14:22.391Z,101708.50
2019-05-23T17:18:00.640Z,101703.30
2019-05-23T17:21:02.400Z,101706.59
2019-05-23T17:24:45.516Z,101702.77
2019-05-23T17:28:25.625Z,101702.97
2019-05-23T17:31:36.935Z,101696.68
2019-05-23T17:34:45.733Z,101693.39
2019-05-23T17:38:04.781Z,101694.30
2019-05-23T17:41:13.625Z,101687.81
2019-05-23T17:44:23.981Z,101685.38
2019-05-23T17:47:32.693Z,101687.52
2019-05-23T17:50:41.416Z,101690.17
2019-05-23T17:53:50.068Z,101682.53
2019-05-23T17:56:58.597Z,101687.82
2019-05-23T18:00:06.808Z,101682.45
2019-05-23T18:04:12.272Z,101669.06
2019-05-23T18:07:21.300Z,101669.45
2019-05-23T18:10:44.009Z,101672.01
2019-05-23T18:13:40.659Z,101663.59
2019-05-23T18:16:49.388Z,101663.40
2019-05-23T18:19:58.443Z,101665.96
2019-05-23T18:23:07.407Z,101660.84
2019-05-23T18:26:16.212Z,101654.22
2019-05-23T18:29:24.924Z,101653.50
2019-05-23T18:32:34.641Z,101655.41
2019-05-23T18:35:44.034Z,101654.27
2019-05-23T18:38:52.743Z,101649.96
2019-05-23T18:42:02.145Z,101650.28
2019-05-23T18:45:12.058Z,101652.45
2019-05-23T18:48:20.740Z,101645.06
2019-05-23T18:51:29.916Z,101649.86
2019-05-23T18:54:38.428Z,101643.54
2019-05-23T18:57:47.127Z,101650.78
2019-05-23T19:01:13.031Z,101643.12
2019-05-23T19:04:21.761Z,101641.85
2019-05-23T19:07:32.575Z,101640.63
2019-05-23T19:10:43.635Z,101643.55
2019-05-23T19:13:53.997Z,101644.72
2019-05-23T19:17:02.898Z,101648.91
2019-05-23T19:20:22.293Z,101643.34
2019-05-23T19:23:31.266Z,101652.88
2019-05-23T19:26:40.606Z,101641.56
2019-05-23T19:29:49.221Z,101646.52
2019-05-23T19:33:11.629Z,101650.55
2019-05-23T19:36:20.184Z,101645.09
2019-05-23T19:39:30.223Z,101647.52
2019-05-23T19:42:39.169Z,101648.27
2019-05-23T19:45:48.181Z,101648.13
2019-05-23T19:48:58.198Z,101652.52
2019-05-23T19:52:08.007Z,101653.39
2019-05-23T19:55:28.400Z,101645.66
2019-05-23T19:58:38.258Z,101648.73
2019-05-23T20:02:17.694Z,101648.72
2019-05-23T20:05:36.767Z,101640.45
2019-05-23T20:08:47.312Z,101636.84
2019-05-23T20:11:56.230Z,101634.82
2019-05-23T20:15:15.535Z,101636.56
2019-05-23T20:18:24.890Z,101637.73
2019-05-23T20:21:34.009Z,101640.77
2019-05-23T20:24:42.732Z,101637.25
2019-05-23T20:27:51.416Z,101636.58
2019-05-23T20:31:00.605Z,101640.83
2019-05-23T20:34:09.473Z,101641.67
2019-05-23T20:37:18.251Z,101641.73
2019-05-23T20:40:28.629Z,101644.68
2019-05-23T20:43:37.326Z,101635.27
2019-05-23T20:46:46.032Z,101633.48
2019-05-23T20:49:54.659Z,101635.95
2019-05-23T20:53:03.329Z,101625.61
2019-05-23T20:56:12.100Z,101630.97
2019-05-23T20:59:20.757Z,101629.95
2019-05-23T21:02:30.435Z,101631.02
2019-05-23T21:05:40.235Z,101629.02
2019-05-23T21:08:49.187Z,101623.87
2019-05-23T21:11:57.801Z,101630.91
2019-05-23T21:15:07.685Z,101626.39
2019-05-23T21:18:26.781Z,101618.34
2019-05-23T21:21:51.845Z,101618.12
2019-05-23T21:25:00.555Z,101619.51
2019-05-23T21:28:09.204Z,101613.63
2019-05-23T21:31:21.702Z,101612.03
2019-05-23T21:34:30.259Z,101617.17
2019-05-23T21:37:38.877Z,101612.98
2019-05-23T21:40:48.714Z,101607.62
2019-05-23T21:43:58.921Z,101603.53
2019-05-23T21:47:07.982Z,101605.12
2019-05-23T21:50:16.522Z,101607.52
2019-05-23T21:53:25.032Z,101603.39
2019-05-23T21:56:43.973Z,101605.39
2019-05-23T21:59:52.589Z,101608.88
2019-05-23T22:03:03.297Z,101612.64
2019-05-23T22:06:14.991Z,101606.27
2019-05-23T22:09:23.816Z,101614.00
2019-05-23T22:12:35.038Z,101618.53
2019-05-23T22:15:42.939Z,101624.70
2019-05-23T22:18:51.590Z,101625.75
2019-05-23T22:22:00.412Z,101624.47
2019-05-23T22:25:09.392Z,101624.70
2019-05-23T22:28:18.401Z,101627.11
2019-05-23T22:31:28.131Z,101626.67
2019-05-23T22:34:43.797Z,101617.34
2019-05-23T22:37:52.555Z,101614.89
2019-05-23T22:41:01.282Z,101618.06
2019-05-23T22:44:10.587Z,101605.77
2019-05-23T22:47:30.241Z,101606.00
2019-05-23T22:50:38.060Z,101615.41
2019-05-23T22:53:46.732Z,101617.05
2019-05-23T22:56:55.599Z,101602.47
2019-05-23T23:00:05.346Z,101601.09
2019-05-23T23:03:32.302Z,101593.05
2019-05-23T23:06:41.026Z,101605.81
2019-05-23T23:09:49.956Z,101604.44
2019-05-23T23:12:58.705Z,101604.62
2019-05-23T23:16:19.708Z,101608.11
2019-05-23T23:19:39.431Z,101604.56
2019-05-23T23:22:48.001Z,101600.61
2019-05-23T23:25:57.035Z,101598.77
2019-05-23T23:29:06.143Z,101603.86
2019-05-23T23:32:14.886Z,101611.82
2019-05-23T23:35:23.530Z,101604.31
2019-05-23T23:38:32.428Z,101598.48
2019-05-23T23:41:41.274Z,101602.05
2019-05-23T23:44:49.078Z,101602.56
2019-05-23T23:48:15.110Z,101597.32
2019-05-23T23:51:41.435Z,101593.56
2019-05-23T23:55:08.452Z,101592.78
2019-05-23T23:58:16.332Z,101596.99
